Time;durP1;ratioP1;P1;durP2;ratioP2;P2;SDS_P1;SDS_P2;PMS_P1;PMS_P2;Temp;Humidity;BMP_temperature;BMP_pressure;BME280_temperature;BME280_humidity;BME280_pressure;Samples;Min_cycle;Max_cycle;Signal;HPM_P1;HPM_P2
2021/03/13 00:06:11;;;;;;;7.9;3.5;;;;;;;2.83;74.99512;98016.59;;;;
2021/03/13 00:16:10;;;;;;;7.2;3.8;;;;;;;2.97;74.81836;98016.8;;;;
2021/03/13 00:26:07;;;;;;;7;4.1;;;;;;;2.71;76.05762;98007.33;;;;
2021/03/13 00:36:09;;;;;;;10.2;4.6;;;;;;;2.68;75.51172;97990.02;;;;
2021/03/13 00:46:02;;;;;;;9.3;5.2;;;;;;;2.7;75.96875;97990.56;;;;
2021/03/13 00:56:00;;;;;;;5.4;2.8;;;;;;;2.74;75.06641;97988.16;;;;
2021/03/13 01:05:58;;;;;;;5.3;3.3;;;;;;;2.76;74.83789;97981.49;;;;
2021/03/13 01:15:56;;;;;;;6.1;3;;;;;;;2.71;75.17285;97973.52;;;;
2021/03/13 01:25:53;;;;;;;5.5;2.6;;;;;;;2.59;74.67383;97966.91;;;;
2021/03/13 01:35:51;;;;;;;8.2;3.7;;;;;;;2.63;74.89258;97952.81;;;;
2021/03/13 01:45:49;;;;;;;6.9;3.8;;;;;;;2.56;76.04492;97941.66;;;;
2021/03/13 01:55:47;;;;;;;7.9;3.9;;;;;;;2.7;74.97168;97944.54;;;;
2021/03/13 02:05:45;;;;;;;6.6;3.1;;;;;;;2.73;74.77637;97943.99;;;;
2021/03/13 02:15:45;;;;;;;7.1;3.2;;;;;;;2.66;74.69922;97933.64;;;;
2021/03/13 02:25:40;;;;;;;3.9;2.2;;;;;;;2.44;76.12207;97914.56;;;;
2021/03/13 02:35:39;;;;;;;4.1;2.4;;;;;;;2.5;76.02148;97924.11;;;;
2021/03/13 02:45:36;;;;;;;5.6;3.1;;;;;;;2.54;75.95117;97914.52;;;;
2021/03/13 02:55:34;;;;;;;4.4;2.9;;;;;;;2.76;75.02734;97906.99;;;;
2021/03/13 03:05:31;;;;;;;8;2.6;;;;;;;2.85;75.16406;97896.55;;;;
2021/03/13 03:15:29;;;;;;;6.9;3.2;;;;;;;3.01;73.96289;97901.55;;;;
2021/03/13 03:25:27;;;;;;;6.5;2.7;;;;;;;3.06;74.19043;97895.38;;;;
2021/03/13 03:35:25;;;;;;;4.6;2.5;;;;;;;3.05;74.2793;97878.6;;;;
2021/03/13 03:45:24;;;;;;;5.8;2;;;;;;;3.05;74.52344;97862.63;;;;
2021/03/13 03:55:21;;;;;;;4.2;2.6;;;;;;;3.03;74.36328;97858.66;;;;
2021/03/13 04:05:20;;;;;;;3.5;1.4;;;;;;;3.15;74.16211;97848.48;;;;
2021/03/13 04:15:16;;;;;;;4.2;2.3;;;;;;;3.16;73.91016;97831.41;;;;
2021/03/13 04:25:14;;;;;;;4.3;2.3;;;;;;;3.3;73.71191;97808.41;;;;
2021/03/13 04:35:12;;;;;;;3.4;1.3;;;;;;;3.55;72.18652;97812.72;;;;
2021/03/13 04:45:10;;;;;;;3.1;1.7;;;;;;;3.58;71.61426;97817.48;;;;
2021/03/13 04:55:08;;;;;;;6.4;2.2;;;;;;;3.72;70.89355;97802.42;;;;
2021/03/13 05:05:06;;;;;;;3.6;2;;;;;;;3.93;70.28125;97782.48;;;;
2021/03/13 05:15:04;;;;;;;2.6;1.2;;;;;;;4.01;70.06055;97784.52;;;;
2021/03/13 05:25:02;;;;;;;3.5;1.5;;;;;;;4.19;68.98535;97776.85;;;;
2021/03/13 05:35:00;;;;;;;5.7;1.7;;;;;;;4.52;68.60547;97782;;;;
2021/03/13 05:44:58;;;;;;;6.4;2.4;;;;;;;4.56;68.63477;97772.34;;;;
2021/03/13 05:54:55;;;;;;;3;1.6;;;;;;;4.76;68.52051;97784.59;;;;
2021/03/13 06:04:53;;;;;;;5.3;2.7;;;;;;;4.87;68.67188;97796.72;;;;
2021/03/13 06:14:51;;;;;;;4.2;2.3;;;;;;;5.29;67.28613;97808.36;;;;
2021/03/13 06:24:50;;;;;;;6;2.5;;;;;;;6.13;65.25488;97817.86;;;;
2021/03/13 06:34:48;;;;;;;15.9;2.1;;;;;;;6.48;63.58008;97824.39;;;;
2021/03/13 06:44:46;;;;;;;5;2.6;;;;;;;6.84;63.85742;97837.8;;;;
2021/03/13 06:54:44;;;;;;;5.4;2.4;;;;;;;7.25;62.49023;97846.53;;;;
2021/03/13 07:04:43;;;;;;;5.5;2.8;;;;;;;7.41;63.00781;97846.95;;;;
2021/03/13 07:14:41;;;;;;;5.7;2.2;;;;;;;7.49;63.72949;97855.06;;;;
2021/03/13 07:24:40;;;;;;;6.3;2.3;;;;;;;7.46;64.53418;97874.41;;;;
2021/03/13 07:34:38;;;;;;;3.5;1.8;;;;;;;7.46;65.56836;97877.09;;;;
2021/03/13 07:44:36;;;;;;;4.8;1.8;;;;;;;7.63;65.03125;97863.05;;;;
2021/03/13 07:54:35;;;;;;;3.7;1.6;;;;;;;7.7;65.7627;97871.45;;;;
2021/03/13 08:04:37;;;;;;;3.6;1.7;;;;;;;7.84;66.07617;97888.27;;;;
2021/03/13 08:14:34;;;;;;;4.1;2;;;;;;;7.83;67.01855;97875.95;;;;
2021/03/13 08:24:39;;;;;;;5.4;2.8;;;;;;;7.75;67.81543;97884.72;;;;
2021/03/13 08:34:37;;;;;;;6.8;2.3;;;;;;;7.7;67.71875;97879.5;;;;
2021/03/13 08:44:40;;;;;;;6.6;2.3;;;;;;;8.02;67.33008;97871.14;;;;
2021/03/13 08:54:48;;;;;;;4;2.4;;;;;;;8.18;65.19336;97863.5;;;;
2021/03/13 09:04:24;;;;;;;5.4;2.5;;;;;;;8.43;65.24121;97886.22;;;;
2021/03/13 09:14:22;;;;;;;4.2;2.1;;;;;;;8.46;65.43848;97878.34;;;;
2021/03/13 09:24:22;;;;;;;4.7;2.1;;;;;;;8.86;64.19043;97887.13;;;;
2021/03/13 09:34:21;;;;;;;4.2;2;;;;;;;9.05;62.27637;97901.09;;;;
2021/03/13 09:44:36;;;;;;;8.3;2;;;;;;;9.17;62.0332;97889.7;;;;
2021/03/13 09:54:16;;;;;;;4.8;2.3;;;;;;;9.54;61;97866.79;;;;
2021/03/13 10:04:15;;;;;;;5.9;1.8;;;;;;;9.58;61.08496;97873.09;;;;
2021/03/13 10:14:14;;;;;;;5.7;2.6;;;;;;;9.65;61.48047;97862.64;;;;
2021/03/13 10:24:12;;;;;;;2.7;1.5;;;;;;;9.71;61.08008;97844.45;;;;
2021/03/13 10:34:11;;;;;;;3.5;1.7;;;;;;;9.43;61.10938;97854.77;;;;
2021/03/13 10:44:10;;;;;;;5.5;2.4;;;;;;;10.11;62.60938;97830.39;;;;
2021/03/13 10:54:08;;;;;;;4.3;2;;;;;;;10.07;60.38574;97826.77;;;;
2021/03/13 11:04:07;;;;;;;3.5;2.3;;;;;;;10.48;59.64746;97818.05;;;;
2021/03/13 11:14:07;;;;;;;4;1.8;;;;;;;10.73;59.47754;97800.16;;;;
2021/03/13 11:24:05;;;;;;;5.9;2.3;;;;;;;10.9;58.35254;97780.38;;;;
2021/03/13 11:34:04;;;;;;;2.1;1.2;;;;;;;11.06;56.83105;97776.77;;;;
2021/03/13 11:44:03;;;;;;;3.3;1.9;;;;;;;11.12;56.20117;97766.56;;;;
2021/03/13 11:54:01;;;;;;;5.7;2.5;;;;;;;11.22;56.65723;97735.69;;;;
2021/03/13 12:04:00;;;;;;;5.5;2.6;;;;;;;11.18;55.50391;97724.78;;;;
2021/03/13 12:13:59;;;;;;;6.5;2;;;;;;;11.71;55.40039;97702.34;;;;
2021/03/13 12:23:58;;;;;;;7.8;1.7;;;;;;;11.44;53.05566;97678.66;;;;
2021/03/13 12:33:57;;;;;;;5.3;2.3;;;;;;;11.36;54.13867;97687.63;;;;
2021/03/13 12:43:56;;;;;;;2.7;1.3;;;;;;;11.29;52.22949;97652.33;;;;
2021/03/13 12:53:55;;;;;;;4.2;2;;;;;;;11.45;53.5127;97650.57;;;;
2021/03/13 13:03:53;;;;;;;5.4;2.1;;;;;;;11.2;52.25293;97621.97;;;;
2021/03/13 13:13:52;;;;;;;3.7;2.1;;;;;;;11.02;52.36914;97616.77;;;;
2021/03/13 13:23:51;;;;;;;5.2;2.2;;;;;;;11.01;52.45801;97590.13;;;;
2021/03/13 13:33:50;;;;;;;6.9;2.6;;;;;;;11.42;53.06543;97610.77;;;;
2021/03/13 13:43:49;;;;;;;5.8;2.4;;;;;;;11.8;51.55078;97597.73;;;;
2021/03/13 13:53:48;;;;;;;3.3;1.6;;;;;;;11.8;50.96777;97594.27;;;;
2021/03/13 14:03:47;;;;;;;4.1;2;;;;;;;11.48;51.92285;97588.63;;;;
2021/03/13 14:13:46;;;;;;;4.1;1.8;;;;;;;11.21;52.83398;97580.41;;;;
2021/03/13 14:23:45;;;;;;;3.6;1.7;;;;;;;10.94;54.62207;97590.68;;;;
2021/03/13 14:33:43;;;;;;;6.3;2.2;;;;;;;10.66;56.54004;97570.05;;;;
2021/03/13 14:43:42;;;;;;;6.9;3.1;;;;;;;10.42;57.26855;97559.98;;;;
2021/03/13 14:53:41;;;;;;;4;1.6;;;;;;;10.16;57.80176;97554.04;;;;
2021/03/13 15:03:40;;;;;;;3.7;1.8;;;;;;;10.16;58.08496;97530.6;;;;
2021/03/13 15:13:38;;;;;;;5.8;2.5;;;;;;;10.38;58.625;97530.22;;;;
2021/03/13 15:23:37;;;;;;;4.9;2.5;;;;;;;10;59.85352;97516.12;;;;
2021/03/13 15:33:36;;;;;;;5.1;2.7;;;;;;;9.81;59.80469;97489.7;;;;
2021/03/13 15:43:36;;;;;;;3.6;2.1;;;;;;;9.8;58.85156;97436.19;;;;
2021/03/13 15:53:33;;;;;;;5.8;2.3;;;;;;;9.64;59.50879;97437.92;;;;
2021/03/13 16:03:32;;;;;;;7.4;4;;;;;;;9.47;59.21582;97412.75;;;;
2021/03/13 16:13:31;;;;;;;9.3;4.2;;;;;;;9.12;61.00879;97391.81;;;;
2021/03/13 16:23:29;;;;;;;7;3.8;;;;;;;8.97;61.65527;97382.41;;;;
2021/03/13 16:33:28;;;;;;;10.6;6.1;;;;;;;9;60.40625;97371.8;;;;
2021/03/13 16:43:26;;;;;;;12.1;7.9;;;;;;;9.1;59.46973;97362.56;;;;
2021/03/13 16:53:25;;;;;;;10.5;6.6;;;;;;;9.28;58.07031;97347.88;;;;
2021/03/13 17:03:24;;;;;;;6.3;3.7;;;;;;;9.4;56.43359;97347.16;;;;
2021/03/13 17:13:22;;;;;;;9;4.2;;;;;;;9.46;54.80957;97345.83;;;;
2021/03/13 17:23:21;;;;;;;10.8;3.9;;;;;;;9.44;54.54688;97342.7;;;;
2021/03/13 17:33:21;;;;;;;7.6;4.4;;;;;;;9.53;53.69727;97344.19;;;;
2021/03/13 17:43:18;;;;;;;4.8;3.5;;;;;;;9.69;53.47852;97341.65;;;;
2021/03/13 17:53:16;;;;;;;7.6;3.4;;;;;;;9.64;54.04004;97331.11;;;;
2021/03/13 18:03:15;;;;;;;5.8;2.9;;;;;;;9.57;55.12988;97320.11;;;;
2021/03/13 18:13:14;;;;;;;5.7;2.4;;;;;;;9.52;55.20313;97321.09;;;;
2021/03/13 18:23:12;;;;;;;8.2;2.8;;;;;;;9.54;55.88379;97326.15;;;;
2021/03/13 18:33:11;;;;;;;7.7;3;;;;;;;9.59;55.8457;97331.3;;;;
2021/03/13 18:43:09;;;;;;;6.3;3.2;;;;;;;9.6;54.99805;97330.98;;;;
2021/03/13 18:53:08;;;;;;;10.3;5.4;;;;;;;9.61;55.38379;97326.4;;;;
2021/03/13 19:03:07;;;;;;;6;3.7;;;;;;;9.48;55.34375;97332.83;;;;
2021/03/13 19:13:05;;;;;;;9.4;5.4;;;;;;;9.3;55.83203;97326.81;;;;
2021/03/13 19:23:04;;;;;;;5;2.9;;;;;;;9.29;56.61133;97341.39;;;;
2021/03/13 19:33:02;;;;;;;8;3.7;;;;;;;9.33;57.18262;97344.21;;;;
2021/03/13 19:43:01;;;;;;;8.4;2.4;;;;;;;9.56;57.04199;97345.42;;;;
2021/03/13 19:53:00;;;;;;;5.1;2.1;;;;;;;9.52;58.18066;97355.27;;;;
2021/03/13 20:02:58;;;;;;;6.7;3.4;;;;;;;9.49;58.92383;97358.61;;;;
2021/03/13 20:12:57;;;;;;;5.1;2.6;;;;;;;9.35;59.52637;97363.48;;;;
2021/03/13 20:22:55;;;;;;;7.6;3.5;;;;;;;9.06;60.69629;97362.42;;;;
2021/03/13 20:32:54;;;;;;;9.4;4.4;;;;;;;8.62;61.69629;97363.02;;;;
2021/03/13 20:42:52;;;;;;;7.4;4;;;;;;;8.21;63.47363;97354.81;;;;
2021/03/13 20:52:50;;;;;;;8.3;5;;;;;;;8.04;64.81055;97342.25;;;;
2021/03/13 21:02:49;;;;;;;7.4;5;;;;;;;7.94;65.20117;97345.28;;;;
2021/03/13 21:12:47;;;;;;;6.5;3.1;;;;;;;7.99;65.62695;97348.56;;;;
2021/03/13 21:22:45;;;;;;;4.4;1.7;;;;;;;8.31;64.97559;97363.33;;;;
2021/03/13 21:32:44;;;;;;;5.4;2.4;;;;;;;8.34;65.53223;97361.89;;;;
2021/03/13 21:42:42;;;;;;;4.2;2.8;;;;;;;8.49;65.4873;97355.98;;;;
2021/03/13 21:52:40;;;;;;;4;1.9;;;;;;;8.77;64.59277;97335.61;;;;
2021/03/13 22:02:39;;;;;;;4.1;1.6;;;;;;;8.82;64.58984;97313.91;;;;
2021/03/13 22:12:37;;;;;;;5.5;3;;;;;;;8.87;64.48535;97280.7;;;;
2021/03/13 22:22:36;;;;;;;7.2;3;;;;;;;8.86;65.2168;97290.66;;;;
2021/03/13 22:32:34;;;;;;;5.1;2.7;;;;;;;8.84;65.43945;97279.47;;;;
2021/03/13 22:42:32;;;;;;;4.6;2.4;;;;;;;8.87;66.2666;97286.87;;;;
2021/03/13 22:52:31;;;;;;;5.1;2.3;;;;;;;8.87;67.08984;97275.33;;;;
2021/03/13 23:02:29;;;;;;;10.6;3.4;;;;;;;8.75;67.99316;97272.56;;;;
2021/03/13 23:12:27;;;;;;;4;2.2;;;;;;;8.85;68.47168;97264.89;;;;
2021/03/13 23:22:26;;;;;;;7.8;4.4;;;;;;;8.74;69.23145;97263.74;;;;
2021/03/13 23:32:24;;;;;;;7.5;4.1;;;;;;;8.71;70.16211;97283.17;;;;
2021/03/13 23:42:23;;;;;;;5.6;3.4;;;;;;;8.89;71.44043;97295.38;;;;
2021/03/13 23:52:22;;;;;;;1.8;1.2;;;;;;;8.35;80.80469;97328.58;;;;
